Time;durP1;ratioP1;P1;durP2;ratioP2;P2;SDS_P1;SDS_P2;PMS_P1;PMS_P2;Temp;Humidity;BMP_temperature;BMP_pressure;BME280_temperature;BME280_humidity;BME280_pressure;Samples;Min_cycle;Max_cycle;Signal;HPM_P1;HPM_P2
2022/03/05 00:00:32;;;;;;;13.23;10.15;;;0.70;99.90;;;;;;5138521;27;20087;-79
2022/03/05 00:02:59;;;;;;;13.43;10.40;;;0.60;99.90;;;;;;5138354;27;20175;-78
2022/03/05 00:05:24;;;;;;;15.43;10.48;;;0.60;99.90;;;;;;5157005;27;20039;-79
2022/03/05 00:07:50;;;;;;;14.57;10.25;;;0.60;99.90;;;;;;5138312;27;20065;-79
2022/03/05 00:10:16;;;;;;;13.43;10.25;;;0.60;99.90;;;;;;5156904;27;20042;-79
2022/03/05 00:12:42;;;;;;;14.63;10.57;;;0.50;99.90;;;;;;5156871;27;20505;-79
2022/03/05 00:15:08;;;;;;;13.77;10.63;;;0.60;99.90;;;;;;5156425;27;20078;-79
2022/03/05 00:17:34;;;;;;;14.98;11.13;;;0.60;99.90;;;;;;5156840;27;20125;-79
2022/03/05 00:20:00;;;;;;;14.38;11.02;;;0.50;99.90;;;;;;5156320;27;20198;-79
2022/03/05 00:22:26;;;;;;;14.93;10.88;;;0.50;99.90;;;;;;5138090;27;20529;-79
2022/03/05 00:24:52;;;;;;;17.58;11.00;;;0.50;99.90;;;;;;5156247;27;20176;-79
2022/03/05 00:27:18;;;;;;;15.45;10.90;;;0.50;99.90;;;;;;5156454;27;20082;-78
2022/03/05 00:29:44;;;;;;;14.50;10.57;;;0.40;99.90;;;;;;5156359;27;20039;-79
2022/03/05 00:32:10;;;;;;;15.50;11.07;;;0.40;99.90;;;;;;5155607;27;20499;-79
2022/03/05 00:34:36;;;;;;;14.65;11.35;;;0.40;99.90;;;;;;5121667;27;20058;-79
2022/03/05 00:37:02;;;;;;;17.92;11.23;;;0.40;99.90;;;;;;5137767;27;20127;-79
2022/03/05 00:39:28;;;;;;;16.73;11.23;;;0.40;99.90;;;;;;5156344;27;20043;-79
2022/03/05 00:41:53;;;;;;;14.45;10.85;;;0.40;99.90;;;;;;5155833;27;20099;-79
2022/03/05 00:44:19;;;;;;;14.55;11.07;;;0.30;99.90;;;;;;5156264;27;20047;-79
2022/03/05 00:46:44;;;;;;;15.70;11.35;;;0.30;99.90;;;;;;5156218;27;20115;-78
2022/03/05 00:49:10;;;;;;;14.00;10.95;;;0.30;99.90;;;;;;5155657;27;20046;-78
2022/03/05 00:51:36;;;;;;;14.02;10.32;;;0.30;99.90;;;;;;5137517;27;20046;-79
2022/03/05 00:54:01;;;;;;;15.40;10.77;;;0.30;99.90;;;;;;5137256;27;20047;-80
2022/03/05 00:56:27;;;;;;;13.27;10.35;;;0.20;99.90;;;;;;5155978;27;20497;-78
2022/03/05 00:58:53;;;;;;;13.57;10.57;;;0.20;99.90;;;;;;5137020;27;20046;-81
2022/03/05 01:01:18;;;;;;;15.68;10.98;;;0.20;99.90;;;;;;5155926;27;20043;-77
2022/03/05 01:03:44;;;;;;;14.48;10.30;;;0.20;99.90;;;;;;5155602;27;20043;-78
2022/03/05 01:06:10;;;;;;;16.92;10.60;;;0.10;99.90;;;;;;5137230;27;20043;-76
2022/03/05 01:08:35;;;;;;;14.20;10.57;;;0.20;99.90;;;;;;5120474;27;20042;-77
2022/03/05 01:11:01;;;;;;;13.52;9.93;;;0.20;99.90;;;;;;5155700;27;20462;-76
2022/03/05 01:13:27;;;;;;;14.40;10.35;;;0.10;99.90;;;;;;5155778;27;20440;-78
2022/03/05 01:15:52;;;;;;;12.45;9.43;;;0.10;99.90;;;;;;5155651;27;20044;-79
2022/03/05 01:18:18;;;;;;;13.27;10.20;;;0.10;99.90;;;;;;5154998;27;20505;-79
2022/03/05 01:20:44;;;;;;;14.43;10.45;;;0.00;99.90;;;;;;5155500;27;20114;-78
2022/03/05 01:23:09;;;;;;;13.75;9.98;;;0.00;99.90;;;;;;5136896;27;20432;-79
2022/03/05 01:25:35;;;;;;;14.05;10.02;;;0.10;99.90;;;;;;5155459;27;20091;-79
2022/03/05 01:28:00;;;;;;;13.82;10.07;;;0.10;99.90;;;;;;5154738;27;20493;-80
2022/03/05 01:30:26;;;;;;;13.05;9.90;;;0.10;99.90;;;;;;5155024;27;20053;-79
2022/03/05 01:32:52;;;;;;;12.50;9.55;;;0.10;99.90;;;;;;5155297;27;20047;-78
2022/03/05 01:35:18;;;;;;;14.23;9.68;;;0.10;99.90;;;;;;5154535;27;20046;-78
2022/03/05 01:37:44;;;;;;;12.20;9.45;;;0.10;99.90;;;;;;5136888;27;20050;-79
2022/03/05 01:40:10;;;;;;;11.95;9.27;;;0.10;99.90;;;;;;5154147;27;20130;-78
2022/03/05 01:42:36;;;;;;;12.52;9.05;;;0.00;99.90;;;;;;5155084;27;20167;-79
2022/03/05 01:45:01;;;;;;;12.20;9.05;;;0.00;99.90;;;;;;5154694;27;20534;-79
2022/03/05 01:47:27;;;;;;;14.45;9.50;;;0.00;99.90;;;;;;5136626;27;20536;-78
2022/03/05 01:49:53;;;;;;;12.98;9.40;;;-0.10;99.90;;;;;;5154955;27;20039;-78
2022/03/05 01:52:19;;;;;;;13.25;9.20;;;-0.10;99.90;;;;;;5119185;27;20386;-78
2022/03/05 01:54:44;;;;;;;14.23;8.63;;;-0.10;99.90;;;;;;5154923;27;20039;-78
2022/03/05 01:57:13;;;;;;;11.38;8.60;;;-0.10;99.90;;;;;;5135944;27;20046;-78
2022/03/05 01:59:39;;;;;;;12.13;8.57;;;-0.10;99.90;;;;;;5136682;27;20141;-79
2022/03/05 02:02:04;;;;;;;12.63;8.25;;;-0.10;99.90;;;;;;5118830;27;20134;-79
2022/03/05 02:04:30;;;;;;;12.68;8.68;;;-0.10;99.90;;;;;;5154732;27;20038;-79
2022/03/05 02:06:56;;;;;;;11.88;8.45;;;-0.20;99.90;;;;;;5154792;27;20126;-78
2022/03/05 02:09:21;;;;;;;9.50;8.13;;;-0.20;99.90;;;;;;5135771;27;20447;-78
2022/03/05 02:11:47;;;;;;;11.80;8.15;;;-0.20;99.90;;;;;;5136210;27;20046;-78
2022/03/05 02:14:19;;;;;;;11.43;8.13;;;-0.20;99.90;;;;;;5154190;27;20042;-78
2022/03/05 02:16:45;;;;;;;11.15;8.13;;;-0.20;99.90;;;;;;5136555;27;20440;-78
2022/03/05 02:19:11;;;;;;;15.80;9.48;;;-0.20;99.90;;;;;;5154127;27;20253;-78
2022/03/05 02:21:36;;;;;;;10.18;7.72;;;-0.20;99.90;;;;;;5136076;27;20039;-78
2022/03/05 02:24:02;;;;;;;9.55;7.60;;;-0.20;99.90;;;;;;5154484;27;20043;-78
2022/03/05 02:26:28;;;;;;;12.68;8.38;;;-0.30;99.90;;;;;;5135547;27;20454;-78
2022/03/05 02:28:53;;;;;;;11.07;8.05;;;-0.30;99.90;;;;;;5135775;27;20043;-77
2022/03/05 02:31:19;;;;;;;10.50;7.63;;;-0.30;99.90;;;;;;5135265;27;20058;-78
2022/03/05 02:33:45;;;;;;;12.57;8.25;;;-0.30;99.90;;;;;;5154384;27;20055;-78
2022/03/05 02:36:10;;;;;;;11.55;7.65;;;-0.30;99.90;;;;;;5153944;27;20054;-77
2022/03/05 02:38:36;;;;;;;12.15;8.13;;;-0.30;99.90;;;;;;5154309;27;20047;-76
2022/03/05 02:41:02;;;;;;;10.98;8.23;;;-0.30;99.90;;;;;;5136000;27;20049;-76
2022/03/05 02:43:28;;;;;;;11.60;7.65;;;-0.30;99.90;;;;;;5135900;27;20133;-75
2022/03/05 02:45:53;;;;;;;13.98;8.02;;;-0.30;99.90;;;;;;5154351;27;20045;-79
2022/03/05 02:48:19;;;;;;;12.55;8.48;;;-0.30;99.90;;;;;;5135469;27;20042;-78
2022/03/05 02:50:45;;;;;;;11.05;8.07;;;-0.30;99.90;;;;;;5136114;27;20390;-79
2022/03/05 02:53:11;;;;;;;12.50;8.45;;;-0.30;99.90;;;;;;5122699;27;20046;-80
2022/03/05 02:55:37;;;;;;;12.18;7.60;;;-0.30;99.90;;;;;;5158382;27;20058;-79
2022/03/05 02:58:03;;;;;;;10.63;7.43;;;-0.40;99.90;;;;;;5105733;27;20058;-79
2022/03/05 03:00:29;;;;;;;11.93;8.13;;;-0.40;99.90;;;;;;5157893;27;20031;-79
2022/03/05 03:02:54;;;;;;;11.10;8.00;;;-0.40;99.90;;;;;;5157842;27;20086;-79
2022/03/05 03:05:21;;;;;;;10.90;7.47;;;-0.40;99.90;;;;;;5139467;27;20082;-79
2022/03/05 03:07:47;;;;;;;11.15;7.78;;;-0.40;99.90;;;;;;5158056;27;20452;-79
2022/03/05 03:10:12;;;;;;;12.60;8.20;;;-0.40;99.90;;;;;;5157494;27;20081;-79
2022/03/05 03:12:38;;;;;;;15.10;8.18;;;-0.50;99.90;;;;;;5139735;27;20126;-79
2022/03/05 03:15:05;;;;;;;9.98;7.18;;;-0.50;99.90;;;;;;5139674;27;20039;-79
2022/03/05 03:17:39;;;;;;;16.02;8.15;;;-0.50;99.90;;;;;;5139309;27;20082;-79
2022/03/05 03:20:05;;;;;;;12.00;7.28;;;-0.40;99.90;;;;;;5157916;27;20090;-78
2022/03/05 03:22:30;;;;;;;10.27;7.35;;;-0.50;99.90;;;;;;5157322;27;20129;-78
2022/03/05 03:24:56;;;;;;;10.50;7.90;;;-0.50;99.90;;;;;;5157726;27;20042;-78
2022/03/05 03:27:22;;;;;;;12.48;8.15;;;-0.50;99.90;;;;;;5157328;27;20066;-78
2022/03/05 03:29:47;;;;;;;10.07;7.70;;;-0.50;99.90;;;;;;5157641;27;20054;-78
2022/03/05 03:32:13;;;;;;;11.52;7.65;;;-0.60;99.90;;;;;;5157783;27;20057;-78
2022/03/05 03:34:39;;;;;;;11.23;7.78;;;-0.60;99.90;;;;;;5157493;27;20057;-79
2022/03/05 03:37:04;;;;;;;12.35;7.85;;;-0.60;99.90;;;;;;5157599;27;20043;-79
2022/03/05 03:39:30;;;;;;;9.50;7.43;;;-0.60;99.90;;;;;;5157037;27;20085;-78
2022/03/05 03:41:55;;;;;;;10.27;7.53;;;-0.60;99.90;;;;;;5157482;27;20146;-78
2022/03/05 03:44:21;;;;;;;11.15;7.15;;;-0.70;99.90;;;;;;5121656;27;20047;-78
2022/03/05 03:46:47;;;;;;;10.35;7.25;;;-0.70;99.90;;;;;;5139206;27;20456;-78
2022/03/05 03:49:12;;;;;;;10.20;7.35;;;-0.70;99.90;;;;;;5138912;27;20039;-78
2022/03/05 03:51:38;;;;;;;11.10;7.60;;;-0.80;99.90;;;;;;5156893;27;20381;-78
2022/03/05 03:54:03;;;;;;;11.02;7.85;;;-0.80;99.90;;;;;;5139071;27;20125;-78
2022/03/05 03:56:29;;;;;;;13.55;8.02;;;-0.80;99.90;;;;;;5156714;27;20072;-78
2022/03/05 03:58:55;;;;;;;10.68;7.82;;;-0.80;99.90;;;;;;5138876;27;20049;-78
2022/03/05 04:01:20;;;;;;;12.63;8.30;;;-0.80;99.90;;;;;;5156317;27;20095;-78
2022/03/05 04:03:46;;;;;;;13.50;8.90;;;-0.80;99.90;;;;;;5156966;27;20046;-77
2022/03/05 04:06:11;;;;;;;14.27;8.55;;;-0.90;99.90;;;;;;5157072;27;20107;-78
2022/03/05 04:08:43;;;;;;;13.82;8.75;;;-0.90;99.90;;;;;;5156633;27;20081;-76
2022/03/05 04:11:10;;;;;;;11.32;8.20;;;-0.90;99.90;;;;;;5157004;27;20050;-76
2022/03/05 04:13:36;;;;;;;17.38;9.23;;;-0.90;99.90;;;;;;5138375;27;20050;-76
2022/03/05 04:16:02;;;;;;;11.48;8.25;;;-0.90;99.90;;;;;;5138519;27;20148;-80
2022/03/05 04:18:27;;;;;;;12.95;8.93;;;-0.90;99.90;;;;;;5156354;27;20047;-78
2022/03/05 04:20:53;;;;;;;12.88;8.15;;;-0.90;99.90;;;;;;5156710;27;20050;-77
2022/03/05 04:23:19;;;;;;;15.43;8.90;;;-0.90;99.90;;;;;;5138278;27;20042;-78
2022/03/05 04:25:45;;;;;;;12.52;8.80;;;-0.90;99.90;;;;;;5137754;27;20432;-78
2022/03/05 04:28:11;;;;;;;14.65;8.52;;;-0.90;99.90;;;;;;5156705;27;20401;-78
2022/03/05 04:30:37;;;;;;;11.18;8.07;;;-0.90;99.90;;;;;;5155615;27;20035;-78
2022/03/05 04:33:02;;;;;;;13.63;9.25;;;-0.80;99.90;;;;;;5156630;27;20435;-78
2022/03/05 04:35:28;;;;;;;13.50;8.50;;;-0.90;99.90;;;;;;5156121;27;20050;-79
2022/03/05 04:37:54;;;;;;;12.13;8.43;;;-0.90;99.90;;;;;;5156358;27;20068;-79
2022/03/05 04:40:20;;;;;;;12.73;8.85;;;-0.90;99.90;;;;;;5156385;27;20052;-79
2022/03/05 04:42:45;;;;;;;12.15;8.10;;;-1.00;99.90;;;;;;5137427;27;20050;-78
2022/03/05 04:45:11;;;;;;;12.85;8.32;;;-1.00;99.90;;;;;;5103602;27;20442;-78
2022/03/05 04:47:37;;;;;;;12.43;8.32;;;-1.00;99.90;;;;;;5137301;27;20043;-78
2022/03/05 04:50:04;;;;;;;12.95;9.02;;;-1.00;99.90;;;;;;5103671;27;20104;-79
2022/03/05 04:52:29;;;;;;;13.00;8.35;;;-1.00;99.90;;;;;;5137303;27;20039;-77
2022/03/05 04:54:55;;;;;;;12.20;8.80;;;-1.00;99.90;;;;;;5137747;27;20038;-78
2022/03/05 04:57:21;;;;;;;13.25;8.25;;;-0.90;99.90;;;;;;5155928;27;20086;-78
2022/03/05 04:59:47;;;;;;;11.55;8.15;;;-1.00;99.90;;;;;;5136931;27;20170;-78
2022/03/05 05:02:13;;;;;;;12.43;8.00;;;-1.00;99.90;;;;;;5120376;27;20045;-78
2022/03/05 05:04:38;;;;;;;14.13;8.68;;;-1.00;99.90;;;;;;5155027;27;20042;-77
2022/03/05 05:07:04;;;;;;;12.57;8.82;;;-1.00;99.90;;;;;;5137148;27;20050;-78
2022/03/05 05:09:30;;;;;;;11.60;8.35;;;-0.90;99.90;;;;;;5136709;27;20038;-79
2022/03/05 05:11:56;;;;;;;12.25;8.05;;;-0.90;99.90;;;;;;5155447;27;20050;-80
2022/03/05 05:14:22;;;;;;;11.48;8.23;;;-0.90;99.90;;;;;;5136143;27;20380;-82
2022/03/05 05:16:48;;;;;;;11.88;8.27;;;-1.00;99.90;;;;;;5119353;27;20038;-80
2022/03/05 05:19:27;;;;;;;11.25;8.05;;;-1.00;99.90;;;;;;5120048;27;20152;-78
2022/03/05 05:22:00;;;;;;;12.52;8.68;;;-1.00;99.90;;;;;;5155152;27;20444;-79
2022/03/05 05:24:31;;;;;;;12.25;8.07;;;-1.00;99.90;;;;;;5120456;27;20050;-79
2022/03/05 05:26:56;;;;;;;;;;;-1.00;99.90;;;;;;5137421;27;20055;-80
2022/03/05 05:29:22;;;;;;;12.68;8.43;;;-1.00;99.90;;;;;;5155310;27;19918;-79
2022/03/05 05:31:49;;;;;;;13.13;8.15;;;-1.00;99.90;;;;;;5136338;27;20050;-81
2022/03/05 05:34:15;;;;;;;11.02;7.78;;;-1.10;99.90;;;;;;5154970;27;20482;-79
2022/03/05 05:36:40;;;;;;;12.90;8.23;;;-0.90;99.90;;;;;;5154848;27;20054;-80
2022/03/05 05:39:07;;;;;;;11.55;8.63;;;-1.00;99.90;;;;;;5155258;27;20043;-78
2022/03/05 05:41:33;;;;;;;13.63;8.80;;;-1.00;99.90;;;;;;5137003;27;20439;-78
2022/03/05 05:43:59;;;;;;;13.75;8.90;;;-1.00;99.90;;;;;;5155522;27;20479;-78
2022/03/05 05:46:24;;;;;;;14.50;8.55;;;-1.10;99.90;;;;;;5155213;27;20053;-79
2022/03/05 05:48:50;;;;;;;12.98;8.60;;;-1.10;99.90;;;;;;5154814;27;20038;-81
2022/03/05 05:51:16;;;;;;;13.95;8.35;;;-1.10;99.90;;;;;;5154934;27;20053;-80
2022/03/05 05:53:41;;;;;;;12.32;8.15;;;-1.10;99.90;;;;;;5136003;27;20042;-80
2022/03/05 05:56:07;;;;;;;12.65;8.82;;;-1.10;99.90;;;;;;5136548;27;20371;-79
2022/03/05 05:58:33;;;;;;;12.27;8.07;;;-1.10;99.90;;;;;;5136046;27;20054;-79
2022/03/05 06:00:58;;;;;;;11.57;8.23;;;-1.10;99.90;;;;;;5154392;27;20042;-80
2022/03/05 06:03:24;;;;;;;11.88;8.32;;;-1.10;99.90;;;;;;5136488;27;20065;-79
2022/03/05 06:05:50;;;;;;;12.35;8.40;;;-1.20;99.90;;;;;;5119017;27;20043;-81
2022/03/05 06:08:15;;;;;;;10.45;7.85;;;-1.20;99.90;;;;;;5119426;27;20046;-82
2022/03/05 06:10:41;;;;;;;14.68;8.02;;;-1.20;99.90;;;;;;5154099;27;20039;-80
2022/03/05 06:13:07;;;;;;;12.00;8.45;;;-1.20;99.90;;;;;;5154693;27;20049;-80
2022/03/05 06:15:32;;;;;;;11.65;8.07;;;-1.20;99.90;;;;;;5154595;27;20046;-80
2022/03/05 06:17:58;;;;;;;11.65;7.85;;;-1.20;99.90;;;;;;5154113;27;20046;-81
2022/03/05 06:20:24;;;;;;;11.18;7.72;;;-1.20;99.90;;;;;;5136100;27;20042;-81
2022/03/05 06:22:49;;;;;;;12.30;8.13;;;-1.20;99.90;;;;;;5154361;27;20116;-80
2022/03/05 06:25:17;;;;;;;11.18;7.82;;;-1.10;99.90;;;;;;5154296;27;20459;-81
2022/03/05 06:27:43;;;;;;;9.95;7.93;;;-1.10;99.90;;;;;;5135666;27;20047;-80
2022/03/05 06:30:10;;;;;;;12.95;8.05;;;-1.20;99.90;;;;;;5135571;27;20122;-80
2022/03/05 06:32:36;;;;;;;13.77;8.85;;;-1.20;99.90;;;;;;5154437;27;20065;-80
2022/03/05 06:35:02;;;;;;;13.20;8.23;;;-1.10;99.90;;;;;;5118597;27;20125;-81
2022/03/05 06:37:30;;;;;;;10.57;7.78;;;-1.10;99.90;;;;;;5154301;27;20237;-81
2022/03/05 06:39:56;;;;;;;10.70;7.75;;;-1.20;99.90;;;;;;5135218;27;20359;-78
2022/03/05 06:42:21;;;;;;;12.10;8.35;;;-1.10;99.90;;;;;;5154117;27;20087;-78
2022/03/05 06:44:47;;;;;;;10.43;7.85;;;-1.10;99.90;;;;;;5153783;27;20103;-79
2022/03/05 06:47:13;;;;;;;11.68;8.32;;;-1.10;99.90;;;;;;5154097;27;20085;-78
2022/03/05 06:49:38;;;;;;;11.30;7.90;;;-1.00;99.90;;;;;;5154038;27;20039;-79
2022/03/05 06:52:04;;;;;;;13.50;8.45;;;-1.00;99.90;;;;;;5153941;27;20506;-78
2022/03/05 06:54:30;;;;;;;12.93;8.60;;;-1.00;99.90;;;;;;5154168;27;20126;-78
2022/03/05 06:56:56;;;;;;;11.93;8.05;;;-0.90;99.90;;;;;;5135203;27;20039;-78
2022/03/05 06:59:21;;;;;;;13.25;8.25;;;-0.90;99.90;;;;;;5154084;27;20094;-77
2022/03/05 07:01:47;;;;;;;10.30;7.53;;;-0.80;99.90;;;;;;5135338;27;20046;-78
2022/03/05 07:04:13;;;;;;;12.68;8.23;;;-0.80;99.90;;;;;;5153783;27;20046;-79
2022/03/05 07:06:38;;;;;;;10.13;7.55;;;-0.80;99.90;;;;;;5153936;27;20167;-79
2022/03/05 07:09:04;;;;;;;11.93;7.70;;;-0.80;99.90;;;;;;5117833;27;20082;-81
2022/03/05 07:11:31;;;;;;;12.13;7.82;;;-0.80;99.90;;;;;;5135708;27;20049;-78
2022/03/05 07:13:56;;;;;;;12.02;8.65;;;-0.80;99.90;;;;;;5118116;27;20042;-79
2022/03/05 07:16:22;;;;;;;10.80;7.93;;;-0.70;99.90;;;;;;5153949;27;20381;-78
2022/03/05 07:18:47;;;;;;;12.27;8.45;;;-0.70;99.90;;;;;;5153410;27;20035;-79
2022/03/05 07:21:13;;;;;;;13.63;8.48;;;-0.70;99.90;;;;;;5153876;27;20039;-78
2022/03/05 07:23:39;;;;;;;10.45;7.80;;;-0.60;99.90;;;;;;5153961;27;20138;-78
2022/03/05 07:26:05;;;;;;;10.88;7.88;;;-0.60;99.90;;;;;;5118173;27;20103;-78
2022/03/05 07:28:30;;;;;;;11.70;8.15;;;-0.50;99.90;;;;;;5135579;27;20402;-77
2022/03/05 07:30:56;;;;;;;11.98;8.40;;;-0.60;99.90;;;;;;5134648;27;20054;-78
2022/03/05 07:33:22;;;;;;;10.93;8.43;;;-0.50;99.90;;;;;;5153816;27;20474;-77
2022/03/05 07:35:48;;;;;;;11.43;8.30;;;-0.50;99.90;;;;;;5153798;27;20043;-77
2022/03/05 07:38:13;;;;;;;12.40;8.25;;;-0.40;99.90;;;;;;5156082;27;20090;-77
2022/03/05 07:40:39;;;;;;;12.40;7.97;;;-0.40;99.90;;;;;;5157484;27;20143;-77
2022/03/05 07:43:05;;;;;;;14.30;8.38;;;-0.40;99.90;;;;;;5156898;27;20042;-77
2022/03/05 07:45:30;;;;;;;13.02;8.18;;;-0.30;99.90;;;;;;5157361;27;20183;-77
2022/03/05 07:47:56;;;;;;;12.55;7.97;;;-0.30;99.90;;;;;;5156854;27;20053;-77
2022/03/05 07:50:21;;;;;;;13.63;8.30;;;-0.20;99.90;;;;;;5121861;27;20394;-77
2022/03/05 07:52:47;;;;;;;12.70;8.40;;;-0.10;99.90;;;;;;5157482;27;20049;-77
2022/03/05 07:55:13;;;;;;;12.70;9.00;;;-0.10;99.90;;;;;;5156816;27;20129;-76
2022/03/05 07:57:38;;;;;;;13.70;8.30;;;0.10;99.90;;;;;;5140764;27;20046;-77
2022/03/05 08:00:05;;;;;;;14.15;8.55;;;0.00;99.90;;;;;;5156686;27;20039;-79
2022/03/05 08:02:32;;;;;;;15.85;8.52;;;0.10;99.90;;;;;;5156976;27;20060;-79
2022/03/05 08:04:57;;;;;;;10.63;7.80;;;0.20;99.90;;;;;;5138447;27;20035;-78
2022/03/05 08:07:24;;;;;;;15.68;8.65;;;0.20;99.90;;;;;;5138419;27;20088;-78
2022/03/05 08:09:49;;;;;;;15.43;8.73;;;0.30;99.90;;;;;;5121656;27;20108;-77
2022/03/05 08:12:15;;;;;;;13.25;8.93;;;0.40;99.90;;;;;;5156610;27;20089;-78
2022/03/05 08:14:42;;;;;;;13.25;8.70;;;0.40;99.90;;;;;;5157066;27;20035;-78
2022/03/05 08:17:07;;;;;;;13.73;8.63;;;0.40;99.90;;;;;;5156457;27;20106;-78
2022/03/05 08:19:33;;;;;;;13.50;8.70;;;0.50;99.90;;;;;;5156883;27;20479;-78
2022/03/05 08:21:59;;;;;;;14.00;8.75;;;0.60;99.90;;;;;;5156239;27;20043;-78
2022/03/05 08:24:24;;;;;;;12.98;8.70;;;0.60;99.90;;;;;;5138149;27;20042;-78
2022/03/05 08:26:50;;;;;;;14.07;8.48;;;0.60;99.90;;;;;;5156659;27;20467;-78
2022/03/05 08:29:16;;;;;;;12.55;8.48;;;0.70;99.90;;;;;;5156180;27;20607;-78
2022/03/05 08:31:41;;;;;;;12.70;8.68;;;0.70;99.90;;;;;;5156491;27;20090;-79
2022/03/05 08:34:07;;;;;;;16.00;9.95;;;0.70;99.90;;;;;;5137221;27;20088;-80
2022/03/05 08:36:33;;;;;;;13.35;8.73;;;0.80;99.90;;;;;;5137642;27;20050;-78
2022/03/05 08:38:59;;;;;;;13.73;8.85;;;0.90;99.90;;;;;;5120661;27;20041;-82
2022/03/05 08:41:25;;;;;;;14.40;10.10;;;0.90;99.90;;;;;;5120719;27;20049;-79
2022/03/05 08:43:51;;;;;;;12.65;9.20;;;0.90;99.90;;;;;;5137760;27;20046;-78
2022/03/05 08:46:17;;;;;;;16.48;9.57;;;1.00;99.90;;;;;;5137277;27;20066;-78
2022/03/05 08:48:43;;;;;;;15.68;9.13;;;1.10;99.90;;;;;;5120451;27;20042;-80
2022/03/05 08:51:09;;;;;;;17.85;9.80;;;1.10;99.90;;;;;;5155624;27;20585;-80
2022/03/05 08:53:34;;;;;;;13.25;9.88;;;1.10;99.90;;;;;;5155901;27;20045;-78
2022/03/05 08:56:00;;;;;;;15.18;10.00;;;1.10;99.90;;;;;;5155967;27;20046;-78
2022/03/05 08:58:26;;;;;;;15.80;10.23;;;1.20;99.90;;;;;;5155853;27;20038;-78
2022/03/05 09:00:52;;;;;;;15.20;10.27;;;1.20;99.90;;;;;;5156189;27;20126;-79
2022/03/05 09:03:24;;;;;;;16.42;11.15;;;1.30;99.90;;;;;;5155443;27;20050;-80
2022/03/05 09:05:49;;;;;;;14.60;10.35;;;1.30;99.90;;;;;;5155854;27;20046;-78
2022/03/05 09:08:15;;;;;;;16.42;10.32;;;1.30;99.90;;;;;;5136847;27;20168;-78
2022/03/05 09:10:41;;;;;;;17.65;11.55;;;1.40;99.90;;;;;;5137203;27;20043;-78
2022/03/05 09:13:07;;;;;;;17.05;10.98;;;1.50;99.90;;;;;;5154868;27;20057;-78
2022/03/05 09:15:33;;;;;;;17.83;11.88;;;1.50;99.90;;;;;;5155618;27;20043;-79
2022/03/05 09:17:58;;;;;;;16.30;10.65;;;1.60;99.90;;;;;;5120389;27;20385;-78
2022/03/05 09:20:24;;;;;;;19.27;11.73;;;1.70;99.90;;;;;;5155060;27;20469;-78
2022/03/05 09:22:49;;;;;;;15.40;11.27;;;1.70;99.90;;;;;;5120103;27;20326;-77
2022/03/05 09:25:15;;;;;;;19.50;11.43;;;1.80;99.90;;;;;;5136556;27;20133;-78
2022/03/05 09:27:41;;;;;;;17.05;10.98;;;1.80;99.90;;;;;;5155459;27;20043;-78
2022/03/05 09:30:07;;;;;;;18.42;11.85;;;1.90;99.90;;;;;;5154881;27;20100;-80
2022/03/05 09:32:36;;;;;;;17.15;11.32;;;1.90;99.90;;;;;;5136796;27;20138;-81
2022/03/05 09:35:03;;;;;;;17.58;12.32;;;1.90;99.90;;;;;;5156417;27;20047;-86
2022/03/05 09:37:30;;;;;;;23.52;12.50;;;2.00;99.90;;;;;;5105805;27;20039;-83
2022/03/05 09:39:56;;;;;;;21.55;13.07;;;2.00;99.90;;;;;;5158977;27;20039;-81
2022/03/05 09:42:21;;;;;;;18.73;12.20;;;2.10;99.90;;;;;;5154781;27;20051;-80
2022/03/05 09:44:47;;;;;;;20.17;12.93;;;2.20;99.90;;;;;;5137088;27;20050;-78
2022/03/05 09:47:13;;;;;;;20.42;12.30;;;2.20;99.90;;;;;;5119524;27;20171;-79
2022/03/05 09:49:38;;;;;;;20.13;13.43;;;2.30;99.90;;;;;;5119616;27;20091;-78
2022/03/05 09:52:05;;;;;;;20.38;12.88;;;2.30;99.90;;;;;;5154882;27;20115;-79
2022/03/05 09:54:31;;;;;;;17.98;13.43;;;2.40;99.90;;;;;;5154435;27;20133;-80
2022/03/05 09:56:56;;;;;;;20.67;13.02;;;2.40;99.90;;;;;;5154867;27;20118;-79
2022/03/05 09:59:22;;;;;;;20.60;13.02;;;2.50;99.90;;;;;;5118753;27;20039;-80
2022/03/05 10:01:48;;;;;;;20.73;13.57;;;2.50;99.90;;;;;;5154703;27;20111;-79
2022/03/05 10:04:21;;;;;;;22.30;13.70;;;2.60;99.90;;;;;;5118930;27;20483;-80
2022/03/05 10:07:12;;;;;;;20.13;13.77;;;2.70;99.90;;;;;;5154880;27;20046;-80
2022/03/05 10:09:38;;;;;;;19.27;13.43;;;2.70;99.90;;;;;;5154765;27;20039;-79
2022/03/05 10:12:42;;;;;;;21.60;13.73;;;2.70;99.90;;;;;;5136331;27;20046;-80
2022/03/05 10:15:18;;;;;;;20.23;12.55;;;2.80;99.90;;;;;;5135480;27;20065;-79
2022/03/05 10:17:57;;;;;;;24.95;13.85;;;2.80;99.90;;;;;;5136380;27;20474;-79
2022/03/05 10:20:24;;;;;;;21.17;13.85;;;2.90;99.90;;;;;;5135888;27;20042;-79
2022/03/05 10:23:02;;;;;;;22.02;14.10;;;3.00;99.90;;;;;;5154487;27;20047;-78
2022/03/05 10:25:29;;;;;;;20.65;13.93;;;3.00;99.90;;;;;;5118488;27;20046;-79
2022/03/05 10:28:17;;;;;;;19.45;13.85;;;3.00;99.90;;;;;;5135954;27;20486;-79
2022/03/05 10:30:45;;;;;;;19.45;13.60;;;3.10;99.90;;;;;;5154123;27;20402;-78
2022/03/05 10:33:30;;;;;;;24.58;14.20;;;3.10;99.90;;;;;;5154547;27;20058;-79
2022/03/05 10:36:00;;;;;;;23.13;14.43;;;3.20;99.90;;;;;;5136360;27;20050;-79
2022/03/05 10:38:48;;;;;;;20.45;13.95;;;3.30;99.90;;;;;;5136105;27;20042;-79
2022/03/05 10:41:17;;;;;;;21.25;13.88;;;3.30;99.90;;;;;;5154493;27;20038;-79
2022/03/05 10:43:44;;;;;;;23.38;14.10;;;3.30;99.90;;;;;;5154289;27;20042;-79
2022/03/05 10:46:09;;;;;;;23.27;14.50;;;3.40;99.90;;;;;;5154335;27;20122;-80
2022/03/05 10:48:40;;;;;;;21.27;14.15;;;3.40;99.90;;;;;;5135625;27;20135;-79
2022/03/05 10:51:13;;;;;;;21.67;14.93;;;3.50;99.90;;;;;;5154311;27;20046;-79
2022/03/05 10:53:47;;;;;;;21.13;13.88;;;3.50;99.90;;;;;;5135606;27;20465;-79
2022/03/05 10:56:32;;;;;;;23.00;14.77;;;3.60;99.90;;;;;;5136389;27;20046;-80
2022/03/05 10:59:11;;;;;;;24.67;14.75;;;3.70;99.90;;;;;;5154318;27;20134;-79
2022/03/05 11:01:38;;;;;;;19.85;14.20;;;3.80;99.90;;;;;;5118484;27;20047;-80
2022/03/05 11:04:05;;;;;;;20.48;14.60;;;3.90;99.90;;;;;;5118800;27;20125;-80
2022/03/05 11:06:31;;;;;;;22.48;14.02;;;3.90;99.90;;;;;;5153769;27;20092;-80
2022/03/05 11:08:56;;;;;;;23.40;14.75;;;3.90;99.90;;;;;;5135683;27;20129;-79
2022/03/05 11:11:22;;;;;;;22.05;14.27;;;4.00;99.90;;;;;;5135221;27;20118;-80
2022/03/05 11:13:48;;;;;;;22.77;14.90;;;4.00;99.90;;;;;;5139595;27;20129;-80
2022/03/05 11:16:13;;;;;;;24.60;14.80;;;4.10;99.90;;;;;;5139590;27;20043;-80
2022/03/05 11:18:39;;;;;;;21.45;14.35;;;4.20;99.90;;;;;;5122283;27;20046;-79
2022/03/05 11:21:05;;;;;;;22.48;15.05;;;4.20;99.90;;;;;;5158047;27;20039;-81
2022/03/05 11:23:31;;;;;;;22.45;14.80;;;4.30;99.90;;;;;;5088304;27;20046;-80
2022/03/05 11:25:58;;;;;;;21.80;14.75;;;4.40;99.90;;;;;;5122223;27;20086;-80
2022/03/05 11:28:23;;;;;;;21.83;15.68;;;4.40;99.90;;;;;;5138728;27;20482;-81
2022/03/05 11:30:53;;;;;;;22.25;14.80;;;4.50;99.90;;;;;;5157276;27;20060;-80
2022/03/05 11:33:43;;;;;;;24.48;14.88;;;4.70;99.90;;;;;;5158467;27;20051;-78
2022/03/05 11:36:29;;;;;;;22.92;15.65;;;4.70;99.90;;;;;;5139567;27;20398;-78
2022/03/05 11:39:20;;;;;;;22.27;15.50;;;4.70;99.90;;;;;;5158485;27;20398;-77
2022/03/05 11:42:01;;;;;;;25.10;15.48;;;4.80;99.90;;;;;;5139132;27;20054;-79
2022/03/05 11:44:48;;;;;;;20.65;14.60;;;4.80;99.90;;;;;;5121921;27;20046;-80
2022/03/05 11:47:25;;;;;;;21.83;14.57;;;4.90;99.90;;;;;;5141923;27;20055;-80
2022/03/05 11:49:58;;;;;;;21.83;14.30;;;5.00;99.90;;;;;;5157428;27;20038;-80
2022/03/05 11:52:46;;;;;;;24.50;14.90;;;5.00;99.90;;;;;;5157461;27;20042;-80
2022/03/05 11:55:15;;;;;;;20.05;14.50;;;5.10;99.90;;;;;;5157280;27;20042;-81
2022/03/05 11:57:49;;;;;;;25.45;15.57;;;5.10;99.90;;;;;;5156854;27;20104;-80
2022/03/05 12:00:18;;;;;;;22.73;14.85;;;5.20;99.90;;;;;;5139873;27;20375;-80
2022/03/05 12:02:51;;;;;;;22.35;15.52;;;5.20;99.90;;;;;;5138335;27;20054;-80
2022/03/05 12:05:38;;;;;;;22.77;14.77;;;5.30;99.90;;;;;;5157127;27;20115;-80
2022/03/05 12:08:05;;;;;;;24.40;16.38;;;5.30;99.90;;;;;;5157045;27;20089;-80
2022/03/05 12:10:31;;;;;;;22.77;15.70;;;5.30;99.90;;;;;;5138168;27;20050;-81
2022/03/05 12:13:07;;;;;;;22.83;15.18;;;5.30;99.90;;;;;;5104816;27;20057;-80
2022/03/05 12:15:34;;;;;;;21.25;15.30;;;5.40;99.90;;;;;;5121153;27;20046;-80
2022/03/05 12:18:03;;;;;;;22.10;15.77;;;5.40;99.90;;;;;;5121691;27;20100;-80
2022/03/05 12:20:33;;;;;;;20.85;15.30;;;5.50;99.90;;;;;;5156968;27;20050;-81
2022/03/05 12:23:04;;;;;;;21.35;14.82;;;5.50;99.90;;;;;;5156675;27;20054;-79
2022/03/05 12:25:37;;;;;;;24.42;15.80;;;5.60;99.90;;;;;;5121593;27;20058;-80
2022/03/05 12:28:04;;;;;;;19.83;14.57;;;5.50;99.60;;;;;;5138111;27;20047;-80
2022/03/05 12:30:35;;;;;;;23.02;14.68;;;5.70;99.50;;;;;;5121192;27;20043;-80
2022/03/05 12:33:02;;;;;;;21.98;14.95;;;5.70;99.50;;;;;;5137947;27;20054;-80
2022/03/05 12:35:28;;;;;;;23.35;16.20;;;5.70;98.90;;;;;;5121219;27;20406;-80
2022/03/05 12:37:54;;;;;;;23.80;15.35;;;5.70;98.70;;;;;;5156085;27;20047;-80